sensor_id;sensor_type;location;lat;lon;timestamp;temperature;humidity
5304;DHT22;2674;49.722;10.892;2023-11-21T00:00:01;7.30;99.90
5304;DHT22;2674;49.722;10.892;2023-11-21T00:02:27;7.40;99.90
5304;DHT22;2674;49.722;10.892;2023-11-21T00:04:54;7.30;99.90
5304;DHT22;2674;49.722;10.892;2023-11-21T00:07:20;7.40;99.90
5304;DHT22;2674;49.722;10.892;2023-11-21T00:09:47;7.40;99.90
5304;DHT22;2674;49.722;10.892;2023-11-21T00:12:13;7.40;99.90
5304;DHT22;2674;49.722;10.892;2023-11-21T00:14:40;7.30;99.90
5304;DHT22;2674;49.722;10.892;2023-11-21T00:17:06;7.30;99.90
5304;DHT22;2674;49.722;10.892;2023-11-21T00:19:32;7.30;99.90
5304;DHT22;2674;49.722;10.892;2023-11-21T00:21:59;7.30;99.90
5304;DHT22;2674;49.722;10.892;2023-11-21T00:24:25;7.40;99.90
5304;DHT22;2674;49.722;10.892;2023-11-21T00:26:51;7.40;99.90
5304;DHT22;2674;49.722;10.892;2023-11-21T00:29:18;7.40;99.90
5304;DHT22;2674;49.722;10.892;2023-11-21T00:31:47;7.30;99.90
5304;DHT22;2674;49.722;10.892;2023-11-21T00:34:13;7.40;99.90
5304;DHT22;2674;49.722;10.892;2023-11-21T00:36:40;7.40;99.90
5304;DHT22;2674;49.722;10.892;2023-11-21T00:39:06;7.40;99.90
5304;DHT22;2674;49.722;10.892;2023-11-21T00:41:32;7.40;99.90
5304;DHT22;2674;49.722;10.892;2023-11-21T00:43:58;7.50;99.90
5304;DHT22;2674;49.722;10.892;2023-11-21T00:46:25;7.50;99.90
5304;DHT22;2674;49.722;10.892;2023-11-21T00:48:52;7.50;99.90
5304;DHT22;2674;49.722;10.892;2023-11-21T00:51:20;7.50;99.90
5304;DHT22;2674;49.722;10.892;2023-11-21T00:53:46;7.50;99.90
5304;DHT22;2674;49.722;10.892;2023-11-21T00:56:12;7.50;99.90
5304;DHT22;2674;49.722;10.892;2023-11-21T00:58:39;7.50;99.90
5304;DHT22;2674;49.722;10.892;2023-11-21T01:01:08;7.50;99.90
5304;DHT22;2674;49.722;10.892;2023-11-21T01:03:33;7.50;99.90
5304;DHT22;2674;49.722;10.892;2023-11-21T01:05:59;7.50;99.90
5304;DHT22;2674;49.722;10.892;2023-11-21T01:08:25;7.50;99.90
5304;DHT22;2674;49.722;10.892;2023-11-21T01:10:51;7.50;99.90
5304;DHT22;2674;49.722;10.892;2023-11-21T01:13:17;7.50;99.90
5304;DHT22;2674;49.722;10.892;2023-11-21T01:15:42;7.40;99.90
5304;DHT22;2674;49.722;10.892;2023-11-21T01:18:08;7.40;99.90
5304;DHT22;2674;49.722;10.892;2023-11-21T01:20:34;7.40;99.90
5304;DHT22;2674;49.722;10.892;2023-11-21T01:23:00;7.40;99.90
5304;DHT22;2674;49.722;10.892;2023-11-21T01:25:26;7.40;99.90
5304;DHT22;2674;49.722;10.892;2023-11-21T01:27:52;7.40;99.90
5304;DHT22;2674;49.722;10.892;2023-11-21T01:30:18;7.40;99.90
5304;DHT22;2674;49.722;10.892;2023-11-21T01:32:44;7.40;99.90
5304;DHT22;2674;49.722;10.892;2023-11-21T01:35:10;7.40;99.90
5304;DHT22;2674;49.722;10.892;2023-11-21T01:37:37;7.40;99.90
5304;DHT22;2674;49.722;10.892;2023-11-21T01:40:04;7.40;99.90
5304;DHT22;2674;49.722;10.892;2023-11-21T01:42:34;7.40;99.90
5304;DHT22;2674;49.722;10.892;2023-11-21T01:45:01;7.40;99.90
5304;DHT22;2674;49.722;10.892;2023-11-21T01:47:29;7.30;99.90
5304;DHT22;2674;49.722;10.892;2023-11-21T01:49:55;7.40;99.90
5304;DHT22;2674;49.722;10.892;2023-11-21T01:52:21;7.40;99.90
5304;DHT22;2674;49.722;10.892;2023-11-21T01:54:47;7.60;99.90
5304;DHT22;2674;49.722;10.892;2023-11-21T01:57:13;7.40;99.90
5304;DHT22;2674;49.722;10.892;2023-11-21T01:59:41;7.30;99.90
5304;DHT22;2674;49.722;10.892;2023-11-21T02:02:08;7.40;99.90
5304;DHT22;2674;49.722;10.892;2023-11-21T02:04:36;7.40;99.90
5304;DHT22;2674;49.722;10.892;2023-11-21T02:07:02;7.40;99.90
5304;DHT22;2674;49.722;10.892;2023-11-21T02:09:31;7.40;99.90
5304;DHT22;2674;49.722;10.892;2023-11-21T02:11:58;7.40;99.90
5304;DHT22;2674;49.722;10.892;2023-11-21T02:14:28;7.40;99.90
5304;DHT22;2674;49.722;10.892;2023-11-21T02:16:54;7.40;99.90
5304;DHT22;2674;49.722;10.892;2023-11-21T02:19:22;7.40;99.90
5304;DHT22;2674;49.722;10.892;2023-11-21T02:21:52;7.40;99.90
5304;DHT22;2674;49.722;10.892;2023-11-21T02:24:19;7.40;99.90
5304;DHT22;2674;49.722;10.892;2023-11-21T02:26:45;7.40;99.90
5304;DHT22;2674;49.722;10.892;2023-11-21T02:29:12;7.40;99.90
5304;DHT22;2674;49.722;10.892;2023-11-21T02:31:39;7.40;99.90
5304;DHT22;2674;49.722;10.892;2023-11-21T02:34:14;7.40;99.90
5304;DHT22;2674;49.722;10.892;2023-11-21T02:36:40;7.40;99.90
5304;DHT22;2674;49.722;10.892;2023-11-21T02:39:08;7.40;99.90
5304;DHT22;2674;49.722;10.892;2023-11-21T02:41:34;7.40;99.90
5304;DHT22;2674;49.722;10.892;2023-11-21T02:44:00;7.40;99.90
5304;DHT22;2674;49.722;10.892;2023-11-21T02:46:26;7.40;99.90
5304;DHT22;2674;49.722;10.892;2023-11-21T02:48:52;7.40;99.90
5304;DHT22;2674;49.722;10.892;2023-11-21T02:51:21;7.40;99.90
5304;DHT22;2674;49.722;10.892;2023-11-21T02:53:48;7.40;99.90
5304;DHT22;2674;49.722;10.892;2023-11-21T02:56:14;7.40;99.90
5304;DHT22;2674;49.722;10.892;2023-11-21T02:58:43;7.40;99.90
5304;DHT22;2674;49.722;10.892;2023-11-21T03:01:10;7.40;99.90
5304;DHT22;2674;49.722;10.892;2023-11-21T03:03:37;7.40;99.90
5304;DHT22;2674;49.722;10.892;2023-11-21T03:06:06;7.40;99.90
5304;DHT22;2674;49.722;10.892;2023-11-21T03:08:32;7.50;99.90
5304;DHT22;2674;49.722;10.892;2023-11-21T03:10:58;7.50;99.90
5304;DHT22;2674;49.722;10.892;2023-11-21T03:13:24;7.50;99.90
5304;DHT22;2674;49.722;10.892;2023-11-21T03:15:50;7.50;99.90
5304;DHT22;2674;49.722;10.892;2023-11-21T03:18:16;7.50;99.90
5304;DHT22;2674;49.722;10.892;2023-11-21T03:20:43;7.50;99.90
5304;DHT22;2674;49.722;10.892;2023-11-21T03:23:12;7.50;99.90
5304;DHT22;2674;49.722;10.892;2023-11-21T03:25:38;7.50;99.90
5304;DHT22;2674;49.722;10.892;2023-11-21T03:28:04;7.50;99.90
5304;DHT22;2674;49.722;10.892;2023-11-21T03:30:30;7.50;99.90
5304;DHT22;2674;49.722;10.892;2023-11-21T03:32:56;7.50;99.90
5304;DHT22;2674;49.722;10.892;2023-11-21T03:35:22;7.50;99.90
5304;DHT22;2674;49.722;10.892;2023-11-21T03:37:48;7.50;99.90
5304;DHT22;2674;49.722;10.892;2023-11-21T03:40:14;7.50;99.90
5304;DHT22;2674;49.722;10.892;2023-11-21T03:42:40;7.50;99.90
5304;DHT22;2674;49.722;10.892;2023-11-21T03:45:06;7.50;99.90
5304;DHT22;2674;49.722;10.892;2023-11-21T03:47:32;7.50;99.90
5304;DHT22;2674;49.722;10.892;2023-11-21T03:49:58;7.40;99.90
5304;DHT22;2674;49.722;10.892;2023-11-21T03:52:25;7.40;99.90
5304;DHT22;2674;49.722;10.892;2023-11-21T03:54:52;7.40;99.90
5304;DHT22;2674;49.722;10.892;2023-11-21T03:57:18;7.50;99.90
5304;DHT22;2674;49.722;10.892;2023-11-21T03:59:44;7.50;99.90
5304;DHT22;2674;49.722;10.892;2023-11-21T04:02:09;7.40;99.90
5304;DHT22;2674;49.722;10.892;2023-11-21T04:04:36;7.40;99.90
5304;DHT22;2674;49.722;10.892;2023-11-21T04:07:02;7.40;99.90
5304;DHT22;2674;49.722;10.892;2023-11-21T04:09:28;7.50;99.90
5304;DHT22;2674;49.722;10.892;2023-11-21T04:11:54;7.50;99.90
5304;DHT22;2674;49.722;10.892;2023-11-21T04:14:22;7.40;99.90
5304;DHT22;2674;49.722;10.892;2023-11-21T04:16:48;7.40;99.90
5304;DHT22;2674;49.722;10.892;2023-11-21T04:19:14;7.40;99.90
5304;DHT22;2674;49.722;10.892;2023-11-21T04:21:41;7.40;99.90
5304;DHT22;2674;49.722;10.892;2023-11-21T04:24:07;7.40;99.90
5304;DHT22;2674;49.722;10.892;2023-11-21T04:26:33;7.40;99.90
5304;DHT22;2674;49.722;10.892;2023-11-21T04:28:59;7.40;99.90
5304;DHT22;2674;49.722;10.892;2023-11-21T04:31:24;7.40;99.90
5304;DHT22;2674;49.722;10.892;2023-11-21T04:33:50;7.40;99.90
5304;DHT22;2674;49.722;10.892;2023-11-21T04:36:16;7.40;99.90
5304;DHT22;2674;49.722;10.892;2023-11-21T04:38:42;7.40;99.90
5304;DHT22;2674;49.722;10.892;2023-11-21T04:41:08;7.40;99.90
5304;DHT22;2674;49.722;10.892;2023-11-21T04:43:34;7.40;99.90
5304;DHT22;2674;49.722;10.892;2023-11-21T04:46:00;7.40;99.90
5304;DHT22;2674;49.722;10.892;2023-11-21T04:48:27;7.40;99.90
5304;DHT22;2674;49.722;10.892;2023-11-21T04:50:53;7.40;99.90
5304;DHT22;2674;49.722;10.892;2023-11-21T04:53:19;7.40;99.90
5304;DHT22;2674;49.722;10.892;2023-11-21T04:55:45;7.40;99.90
5304;DHT22;2674;49.722;10.892;2023-11-21T04:58:11;7.30;99.90
5304;DHT22;2674;49.722;10.892;2023-11-21T05:00:38;7.40;99.90
5304;DHT22;2674;49.722;10.892;2023-11-21T05:03:04;7.30;99.90
5304;DHT22;2674;49.722;10.892;2023-11-21T05:05:30;7.30;99.90
5304;DHT22;2674;49.722;10.892;2023-11-21T05:07:56;7.30;99.90
5304;DHT22;2674;49.722;10.892;2023-11-21T05:10:22;7.30;99.90
5304;DHT22;2674;49.722;10.892;2023-11-21T05:12:48;7.30;99.90
5304;DHT22;2674;49.722;10.892;2023-11-21T05:15:16;7.30;99.90
5304;DHT22;2674;49.722;10.892;2023-11-21T05:17:43;7.40;99.90
5304;DHT22;2674;49.722;10.892;2023-11-21T05:20:14;7.40;99.90
5304;DHT22;2674;49.722;10.892;2023-11-21T05:22:43;7.40;99.90
5304;DHT22;2674;49.722;10.892;2023-11-21T05:25:09;7.40;99.90
5304;DHT22;2674;49.722;10.892;2023-11-21T05:27:36;7.40;99.90
5304;DHT22;2674;49.722;10.892;2023-11-21T05:30:03;7.40;99.90
5304;DHT22;2674;49.722;10.892;2023-11-21T05:32:37;7.40;99.90
5304;DHT22;2674;49.722;10.892;2023-11-21T05:35:03;7.40;99.90
5304;DHT22;2674;49.722;10.892;2023-11-21T05:37:35;7.30;99.90
5304;DHT22;2674;49.722;10.892;2023-11-21T05:40:01;7.40;99.90
5304;DHT22;2674;49.722;10.892;2023-11-21T05:42:32;7.30;99.90
5304;DHT22;2674;49.722;10.892;2023-11-21T05:44:58;7.30;99.90
5304;DHT22;2674;49.722;10.892;2023-11-21T05:47:43;7.30;99.90
5304;DHT22;2674;49.722;10.892;2023-11-21T05:50:10;7.30;99.90
5304;DHT22;2674;49.722;10.892;2023-11-21T05:52:38;7.30;99.90
5304;DHT22;2674;49.722;10.892;2023-11-21T05:55:05;7.30;99.90
5304;DHT22;2674;49.722;10.892;2023-11-21T05:57:35;7.30;99.90
5304;DHT22;2674;49.722;10.892;2023-11-21T06:00:08;7.30;99.90
5304;DHT22;2674;49.722;10.892;2023-11-21T06:02:40;7.40;99.90
5304;DHT22;2674;49.722;10.892;2023-11-21T06:05:07;7.30;99.90
5304;DHT22;2674;49.722;10.892;2023-11-21T06:07:34;7.40;99.90
5304;DHT22;2674;49.722;10.892;2023-11-21T06:10:01;7.30;99.90
5304;DHT22;2674;49.722;10.892;2023-11-21T06:12:28;7.40;99.90
5304;DHT22;2674;49.722;10.892;2023-11-21T06:14:54;7.40;99.90
5304;DHT22;2674;49.722;10.892;2023-11-21T06:17:21;7.40;99.90
5304;DHT22;2674;49.722;10.892;2023-11-21T06:19:47;7.40;99.90
5304;DHT22;2674;49.722;10.892;2023-11-21T06:22:13;7.40;99.90
5304;DHT22;2674;49.722;10.892;2023-11-21T06:24:38;7.40;99.90
5304;DHT22;2674;49.722;10.892;2023-11-21T06:27:06;7.40;99.90
5304;DHT22;2674;49.722;10.892;2023-11-21T06:29:32;7.40;99.90
5304;DHT22;2674;49.722;10.892;2023-11-21T06:31:58;7.40;99.90
5304;DHT22;2674;49.722;10.892;2023-11-21T06:34:24;7.40;99.90
5304;DHT22;2674;49.722;10.892;2023-11-21T06:36:50;7.40;99.90
5304;DHT22;2674;49.722;10.892;2023-11-21T06:39:15;7.30;99.90
5304;DHT22;2674;49.722;10.892;2023-11-21T06:41:42;7.40;99.90
5304;DHT22;2674;49.722;10.892;2023-11-21T06:44:08;7.30;99.90
5304;DHT22;2674;49.722;10.892;2023-11-21T06:46:34;7.30;99.90
5304;DHT22;2674;49.722;10.892;2023-11-21T06:49:00;7.40;99.90
5304;DHT22;2674;49.722;10.892;2023-11-21T06:51:26;7.40;99.90
5304;DHT22;2674;49.722;10.892;2023-11-21T06:53:51;7.40;99.90
5304;DHT22;2674;49.722;10.892;2023-11-21T06:56:18;7.40;99.90
5304;DHT22;2674;49.722;10.892;2023-11-21T06:58:45;7.40;99.90
5304;DHT22;2674;49.722;10.892;2023-11-21T07:01:12;7.40;99.90
5304;DHT22;2674;49.722;10.892;2023-11-21T07:03:38;7.40;99.90
5304;DHT22;2674;49.722;10.892;2023-11-21T07:06:05;7.50;99.90
5304;DHT22;2674;49.722;10.892;2023-11-21T07:08:31;7.50;99.90
5304;DHT22;2674;49.722;10.892;2023-11-21T07:10:57;7.50;99.90
5304;DHT22;2674;49.722;10.892;2023-11-21T07:13:22;7.50;99.90
5304;DHT22;2674;49.722;10.892;2023-11-21T07:15:49;7.50;99.90
5304;DHT22;2674;49.722;10.892;2023-11-21T07:18:15;7.50;99.90
5304;DHT22;2674;49.722;10.892;2023-11-21T07:20:40;7.50;99.90
5304;DHT22;2674;49.722;10.892;2023-11-21T07:23:06;7.50;99.90
5304;DHT22;2674;49.722;10.892;2023-11-21T07:25:32;7.50;99.90
5304;DHT22;2674;49.722;10.892;2023-11-21T07:28:01;7.60;99.90
5304;DHT22;2674;49.722;10.892;2023-11-21T07:30:26;7.60;99.90
5304;DHT22;2674;49.722;10.892;2023-11-21T07:32:53;7.70;99.90
5304;DHT22;2674;49.722;10.892;2023-11-21T07:35:19;7.60;99.90
5304;DHT22;2674;49.722;10.892;2023-11-21T07:37:44;7.60;99.90
5304;DHT22;2674;49.722;10.892;2023-11-21T07:40:11;7.60;99.90
5304;DHT22;2674;49.722;10.892;2023-11-21T07:42:37;7.70;99.90
5304;DHT22;2674;49.722;10.892;2023-11-21T07:45:04;7.70;99.90
5304;DHT22;2674;49.722;10.892;2023-11-21T07:47:30;7.70;99.90
5304;DHT22;2674;49.722;10.892;2023-11-21T07:50:03;7.70;99.90
5304;DHT22;2674;49.722;10.892;2023-11-21T07:52:29;7.80;99.90
5304;DHT22;2674;49.722;10.892;2023-11-21T07:54:54;7.90;99.90
5304;DHT22;2674;49.722;10.892;2023-11-21T07:57:20;8.20;99.90
5304;DHT22;2674;49.722;10.892;2023-11-21T07:59:46;8.40;99.90
5304;DHT22;2674;49.722;10.892;2023-11-21T08:02:12;8.50;99.90
5304;DHT22;2674;49.722;10.892;2023-11-21T08:04:38;8.60;99.90
5304;DHT22;2674;49.722;10.892;2023-11-21T08:07:04;8.70;99.90
5304;DHT22;2674;49.722;10.892;2023-11-21T08:09:30;8.80;99.90
5304;DHT22;2674;49.722;10.892;2023-11-21T08:11:56;8.90;99.90
5304;DHT22;2674;49.722;10.892;2023-11-21T08:14:22;8.90;99.90
5304;DHT22;2674;49.722;10.892;2023-11-21T08:16:51;8.90;99.90
5304;DHT22;2674;49.722;10.892;2023-11-21T08:19:17;9.00;99.90
5304;DHT22;2674;49.722;10.892;2023-11-21T08:21:46;9.00;99.90
5304;DHT22;2674;49.722;10.892;2023-11-21T08:24:12;9.10;99.90
5304;DHT22;2674;49.722;10.892;2023-11-21T08:26:38;9.10;99.90
5304;DHT22;2674;49.722;10.892;2023-11-21T08:29:04;9.10;99.90
5304;DHT22;2674;49.722;10.892;2023-11-21T08:31:32;9.10;99.90
5304;DHT22;2674;49.722;10.892;2023-11-21T08:33:58;9.20;99.90
5304;DHT22;2674;49.722;10.892;2023-11-21T08:36:24;9.20;99.90
5304;DHT22;2674;49.722;10.892;2023-11-21T08:38:51;9.20;99.90
5304;DHT22;2674;49.722;10.892;2023-11-21T08:41:20;9.10;99.90
5304;DHT22;2674;49.722;10.892;2023-11-21T08:43:52;9.20;99.90
5304;DHT22;2674;49.722;10.892;2023-11-21T08:46:19;9.20;99.90
5304;DHT22;2674;49.722;10.892;2023-11-21T08:48:45;9.20;99.90
5304;DHT22;2674;49.722;10.892;2023-11-21T08:51:11;9.10;99.90
5304;DHT22;2674;49.722;10.892;2023-11-21T08:53:37;9.10;99.90
5304;DHT22;2674;49.722;10.892;2023-11-21T08:56:03;9.00;99.90
5304;DHT22;2674;49.722;10.892;2023-11-21T08:58:31;9.10;99.90
5304;DHT22;2674;49.722;10.892;2023-11-21T09:00:57;9.10;99.90
5304;DHT22;2674;49.722;10.892;2023-11-21T09:03:23;9.20;99.90
5304;DHT22;2674;49.722;10.892;2023-11-21T09:05:50;9.10;99.90
5304;DHT22;2674;49.722;10.892;2023-11-21T09:08:16;9.10;99.90
5304;DHT22;2674;49.722;10.892;2023-11-21T09:10:42;9.00;99.90
5304;DHT22;2674;49.722;10.892;2023-11-21T09:13:10;9.10;99.90
5304;DHT22;2674;49.722;10.892;2023-11-21T09:15:36;9.10;99.90
5304;DHT22;2674;49.722;10.892;2023-11-21T09:18:02;9.20;99.90
5304;DHT22;2674;49.722;10.892;2023-11-21T09:20:31;9.30;99.90
5304;DHT22;2674;49.722;10.892;2023-11-21T09:22:57;9.40;99.90
5304;DHT22;2674;49.722;10.892;2023-11-21T09:25:22;9.50;99.90
5304;DHT22;2674;49.722;10.892;2023-11-21T09:27:48;9.50;99.90
5304;DHT22;2674;49.722;10.892;2023-11-21T09:30:14;9.60;99.90
5304;DHT22;2674;49.722;10.892;2023-11-21T09:32:40;9.60;99.90
5304;DHT22;2674;49.722;10.892;2023-11-21T09:35:06;9.50;99.90
5304;DHT22;2674;49.722;10.892;2023-11-21T09:37:35;9.50;99.90
5304;DHT22;2674;49.722;10.892;2023-11-21T09:40:01;9.30;99.90
5304;DHT22;2674;49.722;10.892;2023-11-21T09:42:43;9.50;99.90
5304;DHT22;2674;49.722;10.892;2023-11-21T09:45:20;9.50;99.90
5304;DHT22;2674;49.722;10.892;2023-11-21T09:47:47;9.50;99.90
5304;DHT22;2674;49.722;10.892;2023-11-21T09:50:17;9.40;99.90
5304;DHT22;2674;49.722;10.892;2023-11-21T09:55:29;9.40;99.90
5304;DHT22;2674;49.722;10.892;2023-11-21T09:57:57;9.40;99.90
5304;DHT22;2674;49.722;10.892;2023-11-21T10:00:23;9.40;99.90
5304;DHT22;2674;49.722;10.892;2023-11-21T10:02:51;9.50;99.90
5304;DHT22;2674;49.722;10.892;2023-11-21T10:05:18;9.60;99.90
5304;DHT22;2674;49.722;10.892;2023-11-21T10:07:49;9.50;99.90
5304;DHT22;2674;49.722;10.892;2023-11-21T10:10:18;9.40;99.90
5304;DHT22;2674;49.722;10.892;2023-11-21T10:12:50;9.50;99.90
5304;DHT22;2674;49.722;10.892;2023-11-21T10:15:21;9.50;99.90
5304;DHT22;2674;49.722;10.892;2023-11-21T10:17:49;9.60;99.90
5304;DHT22;2674;49.722;10.892;2023-11-21T10:20:15;9.60;99.90
5304;DHT22;2674;49.722;10.892;2023-11-21T10:22:42;9.60;99.90
5304;DHT22;2674;49.722;10.892;2023-11-21T10:25:09;9.50;99.90
5304;DHT22;2674;49.722;10.892;2023-11-21T10:27:38;9.50;99.90
5304;DHT22;2674;49.722;10.892;2023-11-21T10:30:06;9.40;99.90
5304;DHT22;2674;49.722;10.892;2023-11-21T10:32:33;9.30;99.90
5304;DHT22;2674;49.722;10.892;2023-11-21T10:34:59;9.30;99.90
5304;DHT22;2674;49.722;10.892;2023-11-21T10:37:26;9.20;99.90
5304;DHT22;2674;49.722;10.892;2023-11-21T10:39:59;9.20;99.90
5304;DHT22;2674;49.722;10.892;2023-11-21T10:42:25;9.20;99.90
5304;DHT22;2674;49.722;10.892;2023-11-21T10:44:53;9.10;99.90
5304;DHT22;2674;49.722;10.892;2023-11-21T10:47:19;9.10;99.90
5304;DHT22;2674;49.722;10.892;2023-11-21T10:49:48;9.20;99.90
5304;DHT22;2674;49.722;10.892;2023-11-21T10:52:14;9.20;99.90
5304;DHT22;2674;49.722;10.892;2023-11-21T10:54:46;9.20;99.90
5304;DHT22;2674;49.722;10.892;2023-11-21T10:57:17;9.20;99.90
5304;DHT22;2674;49.722;10.892;2023-11-21T10:59:47;9.20;99.90
5304;DHT22;2674;49.722;10.892;2023-11-21T11:02:24;9.20;99.90
5304;DHT22;2674;49.722;10.892;2023-11-21T11:04:54;9.20;99.90
5304;DHT22;2674;49.722;10.892;2023-11-21T11:07:27;9.20;99.90
5304;DHT22;2674;49.722;10.892;2023-11-21T11:09:56;9.30;99.90
5304;DHT22;2674;49.722;10.892;2023-11-21T11:12:24;9.30;99.90
5304;DHT22;2674;49.722;10.892;2023-11-21T11:14:51;9.30;99.90
5304;DHT22;2674;49.722;10.892;2023-11-21T11:17:19;9.30;99.90
5304;DHT22;2674;49.722;10.892;2023-11-21T11:19:47;9.30;99.90
5304;DHT22;2674;49.722;10.892;2023-11-21T11:22:37;9.30;99.90
5304;DHT22;2674;49.722;10.892;2023-11-21T11:28:17;9.30;99.90
5304;DHT22;2674;49.722;10.892;2023-11-21T11:31:01;9.30;99.90
5304;DHT22;2674;49.722;10.892;2023-11-21T11:33:58;9.40;99.90
5304;DHT22;2674;49.722;10.892;2023-11-21T11:38:59;9.40;99.90
5304;DHT22;2674;49.722;10.892;2023-11-21T11:41:31;9.50;99.90
5304;DHT22;2674;49.722;10.892;2023-11-21T11:44:02;9.40;99.90
5304;DHT22;2674;49.722;10.892;2023-11-21T11:46:47;9.40;99.90
5304;DHT22;2674;49.722;10.892;2023-11-21T11:49:29;9.40;99.90
5304;DHT22;2674;49.722;10.892;2023-11-21T11:53:11;9.50;99.90
5304;DHT22;2674;49.722;10.892;2023-11-21T11:55:21;9.50;99.90
5304;DHT22;2674;49.722;10.892;2023-11-21T11:57:53;9.50;99.90
5304;DHT22;2674;49.722;10.892;2023-11-21T12:02:59;9.40;99.90
5304;DHT22;2674;49.722;10.892;2023-11-21T12:05:30;9.50;99.90
5304;DHT22;2674;49.722;10.892;2023-11-21T12:08:04;9.50;99.90
5304;DHT22;2674;49.722;10.892;2023-11-21T12:10:33;9.50;99.90
5304;DHT22;2674;49.722;10.892;2023-11-21T12:13:01;9.50;99.90
5304;DHT22;2674;49.722;10.892;2023-11-21T12:15:28;9.50;99.90
5304;DHT22;2674;49.722;10.892;2023-11-21T12:17:57;9.50;99.90
5304;DHT22;2674;49.722;10.892;2023-11-21T12:20:25;9.50;99.90
5304;DHT22;2674;49.722;10.892;2023-11-21T12:22:53;9.50;99.90
5304;DHT22;2674;49.722;10.892;2023-11-21T12:25:24;9.60;99.90
5304;DHT22;2674;49.722;10.892;2023-11-21T12:27:52;9.70;99.90
5304;DHT22;2674;49.722;10.892;2023-11-21T12:30:20;9.70;99.90
5304;DHT22;2674;49.722;10.892;2023-11-21T12:32:55;9.80;99.90
5304;DHT22;2674;49.722;10.892;2023-11-21T12:35:28;9.80;99.90
5304;DHT22;2674;49.722;10.892;2023-11-21T12:37:56;9.90;99.90
5304;DHT22;2674;49.722;10.892;2023-11-21T12:40:24;9.90;99.90
5304;DHT22;2674;49.722;10.892;2023-11-21T12:42:58;10.00;99.90
5304;DHT22;2674;49.722;10.892;2023-11-21T12:45:28;10.20;99.90
5304;DHT22;2674;49.722;10.892;2023-11-21T12:48:02;10.30;99.90
5304;DHT22;2674;49.722;10.892;2023-11-21T12:50:34;10.40;99.90
5304;DHT22;2674;49.722;10.892;2023-11-21T12:53:09;10.40;99.90
5304;DHT22;2674;49.722;10.892;2023-11-21T12:55:36;10.40;99.90
5304;DHT22;2674;49.722;10.892;2023-11-21T12:58:07;10.30;99.90
5304;DHT22;2674;49.722;10.892;2023-11-21T13:00:48;10.30;99.90
5304;DHT22;2674;49.722;10.892;2023-11-21T13:03:18;10.30;99.90
5304;DHT22;2674;49.722;10.892;2023-11-21T13:05:46;10.40;99.90
5304;DHT22;2674;49.722;10.892;2023-11-21T13:08:16;10.40;99.90
5304;DHT22;2674;49.722;10.892;2023-11-21T13:10:46;10.40;99.90
5304;DHT22;2674;49.722;10.892;2023-11-21T13:13:14;10.30;99.90
5304;DHT22;2674;49.722;10.892;2023-11-21T13:15:51;10.40;99.90
5304;DHT22;2674;49.722;10.892;2023-11-21T13:18:18;10.40;99.90
5304;DHT22;2674;49.722;10.892;2023-11-21T13:20:44;10.40;99.90
5304;DHT22;2674;49.722;10.892;2023-11-21T13:23:12;10.50;99.00
5304;DHT22;2674;49.722;10.892;2023-11-21T13:25:38;10.40;48.80
5304;DHT22;2674;49.722;10.892;2023-11-21T13:28:07;10.50;36.60
5304;DHT22;2674;49.722;10.892;2023-11-21T13:30:33;10.50;52.40
5304;DHT22;2674;49.722;10.892;2023-11-21T13:33:01;10.60;22.10
5304;DHT22;2674;49.722;10.892;2023-11-21T13:35:38;10.50;36.30
5304;DHT22;2674;49.722;10.892;2023-11-21T13:38:11;10.50;37.40
5304;DHT22;2674;49.722;10.892;2023-11-21T13:40:39;10.50;94.30
5304;DHT22;2674;49.722;10.892;2023-11-21T13:43:15;10.50;38.50
5304;DHT22;2674;49.722;10.892;2023-11-21T13:45:43;10.50;35.30
5304;DHT22;2674;49.722;10.892;2023-11-21T13:48:10;10.50;46.30
5304;DHT22;2674;49.722;10.892;2023-11-21T13:50:39;10.40;31.60
5304;DHT22;2674;49.722;10.892;2023-11-21T13:53:14;10.30;50.60
5304;DHT22;2674;49.722;10.892;2023-11-21T13:55:49;10.20;31.60
5304;DHT22;2674;49.722;10.892;2023-11-21T13:58:16;10.20;12.40
5304;DHT22;2674;49.722;10.892;2023-11-21T14:00:49;10.10;1.00
5304;DHT22;2674;49.722;10.892;2023-11-21T14:03:24;10.10;1.00
5304;DHT22;2674;49.722;10.892;2023-11-21T14:06:03;10.00;1.00
5304;DHT22;2674;49.722;10.892;2023-11-21T14:08:34;9.90;1.00
5304;DHT22;2674;49.722;10.892;2023-11-21T14:11:00;9.80;1.00
5304;DHT22;2674;49.722;10.892;2023-11-21T14:13:26;9.80;1.00
5304;DHT22;2674;49.722;10.892;2023-11-21T14:15:53;9.80;1.00
5304;DHT22;2674;49.722;10.892;2023-11-21T14:18:28;9.80;1.00
5304;DHT22;2674;49.722;10.892;2023-11-21T14:21:07;9.70;1.00
5304;DHT22;2674;49.722;10.892;2023-11-21T14:23:35;9.60;1.00
5304;DHT22;2674;49.722;10.892;2023-11-21T14:26:04;9.50;1.00
5304;DHT22;2674;49.722;10.892;2023-11-21T14:28:31;9.50;16.20
5304;DHT22;2674;49.722;10.892;2023-11-21T14:30:57;9.50;8.20
5304;DHT22;2674;49.722;10.892;2023-11-21T14:33:23;9.50;14.30
5304;DHT22;2674;49.722;10.892;2023-11-21T14:35:49;9.40;25.60
5304;DHT22;2674;49.722;10.892;2023-11-21T14:38:15;9.40;43.30
5304;DHT22;2674;49.722;10.892;2023-11-21T14:40:41;9.30;44.40
5304;DHT22;2674;49.722;10.892;2023-11-21T14:43:07;9.30;32.10
5304;DHT22;2674;49.722;10.892;2023-11-21T14:45:34;9.30;43.60
5304;DHT22;2674;49.722;10.892;2023-11-21T14:48:00;9.30;67.30
5304;DHT22;2674;49.722;10.892;2023-11-21T14:50:41;9.30;97.80
5304;DHT22;2674;49.722;10.892;2023-11-21T14:53:08;9.20;94.60
5304;DHT22;2674;49.722;10.892;2023-11-21T14:55:35;9.20;99.90
5304;DHT22;2674;49.722;10.892;2023-11-21T14:58:16;9.20;99.90
5304;DHT22;2674;49.722;10.892;2023-11-21T15:00:56;9.10;99.90
5304;DHT22;2674;49.722;10.892;2023-11-21T15:03:27;9.10;99.90
5304;DHT22;2674;49.722;10.892;2023-11-21T15:05:56;9.10;99.90
5304;DHT22;2674;49.722;10.892;2023-11-21T15:08:22;9.20;99.90
5304;DHT22;2674;49.722;10.892;2023-11-21T15:10:58;9.20;99.90
5304;DHT22;2674;49.722;10.892;2023-11-21T15:13:24;9.20;99.90
5304;DHT22;2674;49.722;10.892;2023-11-21T15:15:52;9.20;99.90
5304;DHT22;2674;49.722;10.892;2023-11-21T15:18:20;9.10;99.90
5304;DHT22;2674;49.722;10.892;2023-11-21T15:20:46;9.10;99.90
5304;DHT22;2674;49.722;10.892;2023-11-21T15:23:12;9.10;99.90
5304;DHT22;2674;49.722;10.892;2023-11-21T15:25:39;9.10;99.90
5304;DHT22;2674;49.722;10.892;2023-11-21T15:28:05;9.00;99.90
5304;DHT22;2674;49.722;10.892;2023-11-21T15:30:32;9.00;99.90
5304;DHT22;2674;49.722;10.892;2023-11-21T15:32:59;8.90;99.90
5304;DHT22;2674;49.722;10.892;2023-11-21T15:35:25;8.90;99.90
5304;DHT22;2674;49.722;10.892;2023-11-21T15:37:53;8.90;99.90
5304;DHT22;2674;49.722;10.892;2023-11-21T15:40:18;8.80;99.90
5304;DHT22;2674;49.722;10.892;2023-11-21T15:42:44;8.80;99.90
5304;DHT22;2674;49.722;10.892;2023-11-21T15:45:10;8.80;99.90
5304;DHT22;2674;49.722;10.892;2023-11-21T15:47:36;8.80;99.90
5304;DHT22;2674;49.722;10.892;2023-11-21T15:50:03;8.80;99.90
5304;DHT22;2674;49.722;10.892;2023-11-21T15:52:32;8.80;99.90
5304;DHT22;2674;49.722;10.892;2023-11-21T15:54:58;8.80;99.90
5304;DHT22;2674;49.722;10.892;2023-11-21T15:57:24;8.80;99.90
5304;DHT22;2674;49.722;10.892;2023-11-21T15:59:50;8.70;99.90
5304;DHT22;2674;49.722;10.892;2023-11-21T16:02:16;8.70;99.90
5304;DHT22;2674;49.722;10.892;2023-11-21T16:04:42;8.70;99.90
5304;DHT22;2674;49.722;10.892;2023-11-21T16:07:08;8.70;99.90
5304;DHT22;2674;49.722;10.892;2023-11-21T16:09:35;8.70;99.90
5304;DHT22;2674;49.722;10.892;2023-11-21T16:12:05;8.50;99.90
5304;DHT22;2674;49.722;10.892;2023-11-21T16:14:33;8.60;99.90